sensor_id;sensor_type;location;lat;lon;timestamp;P1;durP1;ratioP1;P2;durP2;ratioP2
16900;SDS011;8567;52.540;6.434;2024-03-22T00:02:07;2.72;;;2.50;;
16900;SDS011;8567;52.540;6.434;2024-03-22T00:04:34;2.78;;;2.50;;
16900;SDS011;8567;52.540;6.434;2024-03-22T00:07:01;2.53;;;2.42;;
16900;SDS011;8567;52.540;6.434;2024-03-22T00:09:28;2.72;;;2.50;;
16900;SDS011;8567;52.540;6.434;2024-03-22T00:11:55;2.42;;;2.22;;
16900;SDS011;8567;52.540;6.434;2024-03-22T00:14:21;2.30;;;2.20;;
16900;SDS011;8567;52.540;6.434;2024-03-22T00:16:47;2.08;;;1.98;;
16900;SDS011;8567;52.540;6.434;2024-03-22T00:19:14;2.58;;;2.38;;
16900;SDS011;8567;52.540;6.434;2024-03-22T00:21:41;2.30;;;2.20;;
16900;SDS011;8567;52.540;6.434;2024-03-22T00:24:07;2.28;;;2.10;;
16900;SDS011;8567;52.540;6.434;2024-03-22T00:26:34;2.35;;;2.15;;
16900;SDS011;8567;52.540;6.434;2024-03-22T00:29:00;2.15;;;2.05;;
16900;SDS011;8567;52.540;6.434;2024-03-22T00:31:27;2.10;;;1.90;;
16900;SDS011;8567;52.540;6.434;2024-03-22T00:33:53;2.47;;;2.28;;
16900;SDS011;8567;52.540;6.434;2024-03-22T00:36:21;2.20;;;2.10;;
16900;SDS011;8567;52.540;6.434;2024-03-22T00:38:47;2.00;;;1.90;;
16900;SDS011;8567;52.540;6.434;2024-03-22T00:41:13;1.95;;;1.85;;
16900;SDS011;8567;52.540;6.434;2024-03-22T00:43:39;2.15;;;2.05;;
16900;SDS011;8567;52.540;6.434;2024-03-22T00:46:06;2.30;;;2.08;;
16900;SDS011;8567;52.540;6.434;2024-03-22T00:48:32;2.00;;;1.90;;
16900;SDS011;8567;52.540;6.434;2024-03-22T00:51:01;2.17;;;2.08;;
16900;SDS011;8567;52.540;6.434;2024-03-22T00:53:28;2.03;;;1.92;;
16900;SDS011;8567;52.540;6.434;2024-03-22T00:55:55;2.38;;;2.28;;
16900;SDS011;8567;52.540;6.434;2024-03-22T00:58:24;2.22;;;2.13;;
16900;SDS011;8567;52.540;6.434;2024-03-22T01:00:51;2.10;;;2.00;;
16900;SDS011;8567;52.540;6.434;2024-03-22T01:03:17;2.03;;;1.92;;
16900;SDS011;8567;52.540;6.434;2024-03-22T01:05:43;2.10;;;2.00;;
16900;SDS011;8567;52.540;6.434;2024-03-22T01:08:09;2.10;;;2.00;;
16900;SDS011;8567;52.540;6.434;2024-03-22T01:10:37;2.30;;;2.20;;
16900;SDS011;8567;52.540;6.434;2024-03-22T01:13:03;1.85;;;1.75;;
16900;SDS011;8567;52.540;6.434;2024-03-22T01:15:30;2.28;;;2.10;;
16900;SDS011;8567;52.540;6.434;2024-03-22T01:17:56;2.28;;;2.08;;
16900;SDS011;8567;52.540;6.434;2024-03-22T01:20:23;2.00;;;1.90;;
16900;SDS011;8567;52.540;6.434;2024-03-22T01:22:49;2.20;;;2.10;;
16900;SDS011;8567;52.540;6.434;2024-03-22T01:25:16;2.08;;;1.98;;
16900;SDS011;8567;52.540;6.434;2024-03-22T01:27:43;2.20;;;2.10;;
16900;SDS011;8567;52.540;6.434;2024-03-22T01:30:10;2.20;;;2.10;;
16900;SDS011;8567;52.540;6.434;2024-03-22T01:32:36;2.28;;;2.17;;
16900;SDS011;8567;52.540;6.434;2024-03-22T01:35:03;2.50;;;2.40;;
16900;SDS011;8567;52.540;6.434;2024-03-22T01:37:29;2.40;;;2.30;;
16900;SDS011;8567;52.540;6.434;2024-03-22T01:39:57;2.20;;;2.10;;
16900;SDS011;8567;52.540;6.434;2024-03-22T01:42:22;2.30;;;2.20;;
16900;SDS011;8567;52.540;6.434;2024-03-22T01:44:51;2.22;;;2.13;;
16900;SDS011;8567;52.540;6.434;2024-03-22T01:47:17;2.13;;;2.03;;
16900;SDS011;8567;52.540;6.434;2024-03-22T01:49:43;2.30;;;2.20;;
16900;SDS011;8567;52.540;6.434;2024-03-22T01:52:09;2.25;;;2.15;;
16900;SDS011;8567;52.540;6.434;2024-03-22T01:54:36;2.50;;;2.40;;
16900;SDS011;8567;52.540;6.434;2024-03-22T01:57:02;2.70;;;2.50;;
16900;SDS011;8567;52.540;6.434;2024-03-22T01:59:29;2.30;;;2.20;;
16900;SDS011;8567;52.540;6.434;2024-03-22T02:01:57;2.33;;;2.22;;
16900;SDS011;8567;52.540;6.434;2024-03-22T02:04:24;2.30;;;2.20;;
16900;SDS011;8567;52.540;6.434;2024-03-22T02:06:49;2.50;;;2.40;;
16900;SDS011;8567;52.540;6.434;2024-03-22T02:09:16;2.45;;;2.35;;
16900;SDS011;8567;52.540;6.434;2024-03-22T02:11:42;2.70;;;2.60;;
16900;SDS011;8567;52.540;6.434;2024-03-22T02:14:09;2.70;;;2.60;;
16900;SDS011;8567;52.540;6.434;2024-03-22T02:16:35;2.60;;;2.50;;
16900;SDS011;8567;52.540;6.434;2024-03-22T02:19:03;2.47;;;2.38;;
16900;SDS011;8567;52.540;6.434;2024-03-22T02:21:29;2.83;;;2.70;;
16900;SDS011;8567;52.540;6.434;2024-03-22T02:23:57;2.60;;;2.50;;
16900;SDS011;8567;52.540;6.434;2024-03-22T02:26:23;2.60;;;2.50;;
16900;SDS011;8567;52.540;6.434;2024-03-22T02:28:49;2.50;;;2.40;;
16900;SDS011;8567;52.540;6.434;2024-03-22T02:31:15;2.60;;;2.50;;
16900;SDS011;8567;52.540;6.434;2024-03-22T02:33:42;2.70;;;2.60;;
16900;SDS011;8567;52.540;6.434;2024-03-22T02:36:08;2.60;;;2.50;;
16900;SDS011;8567;52.540;6.434;2024-03-22T02:38:35;2.75;;;2.65;;
16900;SDS011;8567;52.540;6.434;2024-03-22T02:41:02;2.70;;;2.60;;
16900;SDS011;8567;52.540;6.434;2024-03-22T02:43:30;2.80;;;2.70;;
16900;SDS011;8567;52.540;6.434;2024-03-22T02:45:55;2.75;;;2.65;;
16900;SDS011;8567;52.540;6.434;2024-03-22T02:48:22;2.75;;;2.55;;
16900;SDS011;8567;52.540;6.434;2024-03-22T02:50:48;2.70;;;2.50;;
16900;SDS011;8567;52.540;6.434;2024-03-22T02:53:15;2.55;;;2.45;;
16900;SDS011;8567;52.540;6.434;2024-03-22T02:55:40;2.53;;;2.42;;
16900;SDS011;8567;52.540;6.434;2024-03-22T02:58:09;2.80;;;2.70;;
16900;SDS011;8567;52.540;6.434;2024-03-22T03:00:35;2.70;;;2.60;;
16900;SDS011;8567;52.540;6.434;2024-03-22T03:03:03;2.30;;;2.20;;
16900;SDS011;8567;52.540;6.434;2024-03-22T03:05:29;2.47;;;2.38;;
16900;SDS011;8567;52.540;6.434;2024-03-22T03:07:56;2.75;;;2.65;;
16900;SDS011;8567;52.540;6.434;2024-03-22T03:10:22;2.72;;;2.63;;
16900;SDS011;8567;52.540;6.434;2024-03-22T03:12:49;3.20;;;3.00;;
16900;SDS011;8567;52.540;6.434;2024-03-22T03:15:17;2.65;;;2.55;;
16900;SDS011;8567;52.540;6.434;2024-03-22T03:17:43;2.70;;;2.60;;
16900;SDS011;8567;52.540;6.434;2024-03-22T03:20:10;2.70;;;2.60;;
16900;SDS011;8567;52.540;6.434;2024-03-22T03:22:38;2.90;;;2.80;;
16900;SDS011;8567;52.540;6.434;2024-03-22T03:25:05;2.78;;;2.67;;
16900;SDS011;8567;52.540;6.434;2024-03-22T03:27:32;2.65;;;2.55;;
16900;SDS011;8567;52.540;6.434;2024-03-22T03:29:58;2.85;;;2.65;;
16900;SDS011;8567;52.540;6.434;2024-03-22T03:32:26;2.78;;;2.67;;
16900;SDS011;8567;52.540;6.434;2024-03-22T03:34:52;3.00;;;2.80;;
16900;SDS011;8567;52.540;6.434;2024-03-22T03:37:18;3.08;;;2.92;;
16900;SDS011;8567;52.540;6.434;2024-03-22T03:39:44;4.57;;;3.08;;
16900;SDS011;8567;52.540;6.434;2024-03-22T03:42:11;2.97;;;2.78;;
16900;SDS011;8567;52.540;6.434;2024-03-22T03:44:37;2.75;;;2.65;;
16900;SDS011;8567;52.540;6.434;2024-03-22T03:47:04;2.83;;;2.72;;
16900;SDS011;8567;52.540;6.434;2024-03-22T03:49:31;2.92;;;2.78;;
16900;SDS011;8567;52.540;6.434;2024-03-22T03:51:58;2.70;;;2.60;;
16900;SDS011;8567;52.540;6.434;2024-03-22T03:54:24;2.80;;;2.70;;
16900;SDS011;8567;52.540;6.434;2024-03-22T03:56:50;2.88;;;2.67;;
16900;SDS011;8567;52.540;6.434;2024-03-22T03:59:16;2.70;;;2.60;;
16900;SDS011;8567;52.540;6.434;2024-03-22T04:01:43;3.15;;;2.95;;
16900;SDS011;8567;52.540;6.434;2024-03-22T04:04:09;2.67;;;2.58;;
16900;SDS011;8567;52.540;6.434;2024-03-22T04:06:37;2.88;;;2.78;;
16900;SDS011;8567;52.540;6.434;2024-03-22T04:09:03;2.70;;;2.60;;
16900;SDS011;8567;52.540;6.434;2024-03-22T04:11:30;3.22;;;3.03;;
16900;SDS011;8567;52.540;6.434;2024-03-22T04:13:56;3.00;;;2.80;;
16900;SDS011;8567;52.540;6.434;2024-03-22T04:16:23;2.50;;;2.40;;
16900;SDS011;8567;52.540;6.434;2024-03-22T04:18:49;2.65;;;2.53;;
16900;SDS011;8567;52.540;6.434;2024-03-22T04:21:15;3.40;;;3.20;;
16900;SDS011;8567;52.540;6.434;2024-03-22T04:23:42;2.80;;;2.70;;
16900;SDS011;8567;52.540;6.434;2024-03-22T04:26:09;2.90;;;2.70;;
16900;SDS011;8567;52.540;6.434;2024-03-22T04:28:35;3.10;;;2.90;;
16900;SDS011;8567;52.540;6.434;2024-03-22T04:31:03;2.65;;;2.55;;
16900;SDS011;8567;52.540;6.434;2024-03-22T04:33:30;3.30;;;3.10;;
16900;SDS011;8567;52.540;6.434;2024-03-22T04:35:58;2.97;;;2.88;;
16900;SDS011;8567;52.540;6.434;2024-03-22T04:38:26;2.70;;;2.60;;
16900;SDS011;8567;52.540;6.434;2024-03-22T04:40:54;2.70;;;2.60;;
16900;SDS011;8567;52.540;6.434;2024-03-22T04:43:22;2.53;;;2.42;;
16900;SDS011;8567;52.540;6.434;2024-03-22T04:45:50;3.00;;;2.80;;
16900;SDS011;8567;52.540;6.434;2024-03-22T04:48:17;2.65;;;2.55;;
16900;SDS011;8567;52.540;6.434;2024-03-22T04:50:46;2.75;;;2.65;;
16900;SDS011;8567;52.540;6.434;2024-03-22T04:53:15;2.80;;;2.63;;
16900;SDS011;8567;52.540;6.434;2024-03-22T04:55:42;2.45;;;2.35;;
16900;SDS011;8567;52.540;6.434;2024-03-22T04:58:12;2.75;;;2.63;;
16900;SDS011;8567;52.540;6.434;2024-03-22T05:00:38;2.83;;;2.72;;
16900;SDS011;8567;52.540;6.434;2024-03-22T05:03:05;2.30;;;2.20;;
16900;SDS011;8567;52.540;6.434;2024-03-22T05:05:31;2.58;;;2.47;;
16900;SDS011;8567;52.540;6.434;2024-03-22T05:07:57;2.80;;;2.60;;
16900;SDS011;8567;52.540;6.434;2024-03-22T05:10:23;2.90;;;2.80;;
16900;SDS011;8567;52.540;6.434;2024-03-22T05:12:50;2.70;;;2.50;;
16900;SDS011;8567;52.540;6.434;2024-03-22T05:15:17;2.75;;;2.65;;
16900;SDS011;8567;52.540;6.434;2024-03-22T05:17:44;2.72;;;2.63;;
16900;SDS011;8567;52.540;6.434;2024-03-22T05:20:10;2.70;;;2.60;;
16900;SDS011;8567;52.540;6.434;2024-03-22T05:22:38;2.55;;;2.45;;
16900;SDS011;8567;52.540;6.434;2024-03-22T05:25:04;3.35;;;3.15;;
16900;SDS011;8567;52.540;6.434;2024-03-22T05:27:32;2.80;;;2.70;;
16900;SDS011;8567;52.540;6.434;2024-03-22T05:29:58;2.75;;;2.65;;
16900;SDS011;8567;52.540;6.434;2024-03-22T05:32:26;2.63;;;2.53;;
16900;SDS011;8567;52.540;6.434;2024-03-22T05:34:53;2.85;;;2.75;;
16900;SDS011;8567;52.540;6.434;2024-03-22T05:37:19;3.28;;;3.08;;
16900;SDS011;8567;52.540;6.434;2024-03-22T05:39:46;2.80;;;2.70;;
16900;SDS011;8567;52.540;6.434;2024-03-22T05:42:12;2.90;;;2.70;;
16900;SDS011;8567;52.540;6.434;2024-03-22T05:44:38;2.75;;;2.65;;
16900;SDS011;8567;52.540;6.434;2024-03-22T05:47:04;2.90;;;2.80;;
16900;SDS011;8567;52.540;6.434;2024-03-22T05:49:32;3.10;;;2.90;;
16900;SDS011;8567;52.540;6.434;2024-03-22T05:51:58;3.35;;;3.15;;
16900;SDS011;8567;52.540;6.434;2024-03-22T05:54:25;2.85;;;2.65;;
16900;SDS011;8567;52.540;6.434;2024-03-22T05:56:51;2.65;;;2.53;;
16900;SDS011;8567;52.540;6.434;2024-03-22T05:59:18;2.90;;;2.75;;
16900;SDS011;8567;52.540;6.434;2024-03-22T06:01:44;3.20;;;3.00;;
16900;SDS011;8567;52.540;6.434;2024-03-22T06:04:10;2.83;;;2.72;;
16900;SDS011;8567;52.540;6.434;2024-03-22T06:06:37;2.92;;;2.83;;
16900;SDS011;8567;52.540;6.434;2024-03-22T06:09:04;3.17;;;2.97;;
16900;SDS011;8567;52.540;6.434;2024-03-22T06:11:36;2.75;;;2.65;;
16900;SDS011;8567;52.540;6.434;2024-03-22T06:14:03;2.92;;;2.72;;
16900;SDS011;8567;52.540;6.434;2024-03-22T06:16:29;3.00;;;2.80;;
16900;SDS011;8567;52.540;6.434;2024-03-22T06:18:56;3.10;;;2.90;;
16900;SDS011;8567;52.540;6.434;2024-03-22T06:21:22;2.80;;;2.70;;
16900;SDS011;8567;52.540;6.434;2024-03-22T06:23:52;3.05;;;2.92;;
16900;SDS011;8567;52.540;6.434;2024-03-22T06:26:18;2.88;;;2.72;;
16900;SDS011;8567;52.540;6.434;2024-03-22T06:28:44;2.95;;;2.75;;
16900;SDS011;8567;52.540;6.434;2024-03-22T06:31:11;3.08;;;2.88;;
16900;SDS011;8567;52.540;6.434;2024-03-22T06:33:37;2.97;;;2.88;;
16900;SDS011;8567;52.540;6.434;2024-03-22T06:36:04;2.88;;;2.72;;
16900;SDS011;8567;52.540;6.434;2024-03-22T06:38:30;3.20;;;3.00;;
16900;SDS011;8567;52.540;6.434;2024-03-22T06:40:59;3.10;;;2.90;;
16900;SDS011;8567;52.540;6.434;2024-03-22T06:43:25;3.00;;;2.80;;
16900;SDS011;8567;52.540;6.434;2024-03-22T06:45:52;4.57;;;4.28;;
16900;SDS011;8567;52.540;6.434;2024-03-22T06:48:17;3.40;;;3.17;;
16900;SDS011;8567;52.540;6.434;2024-03-22T06:50:44;3.22;;;3.03;;
16900;SDS011;8567;52.540;6.434;2024-03-22T06:53:11;3.17;;;2.97;;
16900;SDS011;8567;52.540;6.434;2024-03-22T06:55:38;3.30;;;3.10;;
16900;SDS011;8567;52.540;6.434;2024-03-22T06:58:05;4.30;;;4.00;;
16900;SDS011;8567;52.540;6.434;2024-03-22T07:00:32;4.55;;;4.25;;
16900;SDS011;8567;52.540;6.434;2024-03-22T07:02:59;4.40;;;4.10;;
16900;SDS011;8567;52.540;6.434;2024-03-22T07:05:27;4.05;;;3.83;;
16900;SDS011;8567;52.540;6.434;2024-03-22T07:07:53;4.25;;;3.95;;
16900;SDS011;8567;52.540;6.434;2024-03-22T07:10:22;5.03;;;4.53;;
16900;SDS011;8567;52.540;6.434;2024-03-22T07:12:52;4.70;;;4.30;;
16900;SDS011;8567;52.540;6.434;2024-03-22T07:15:21;4.15;;;3.78;;
16900;SDS011;8567;52.540;6.434;2024-03-22T07:17:48;4.07;;;3.75;;
16900;SDS011;8567;52.540;6.434;2024-03-22T07:20:15;5.82;;;4.75;;
16900;SDS011;8567;52.540;6.434;2024-03-22T07:22:41;8.93;;;5.05;;
16900;SDS011;8567;52.540;6.434;2024-03-22T07:25:08;5.50;;;4.97;;
16900;SDS011;8567;52.540;6.434;2024-03-22T07:27:34;5.38;;;4.97;;
16900;SDS011;8567;52.540;6.434;2024-03-22T07:30:02;5.43;;;4.53;;
16900;SDS011;8567;52.540;6.434;2024-03-22T07:32:30;4.75;;;4.28;;
16900;SDS011;8567;52.540;6.434;2024-03-22T07:34:57;5.95;;;4.03;;
16900;SDS011;8567;52.540;6.434;2024-03-22T07:37:22;4.75;;;4.18;;
16900;SDS011;8567;52.540;6.434;2024-03-22T07:39:49;6.03;;;4.30;;
16900;SDS011;8567;52.540;6.434;2024-03-22T07:42:16;6.18;;;3.92;;
16900;SDS011;8567;52.540;6.434;2024-03-22T07:44:43;3.80;;;3.40;;
16900;SDS011;8567;52.540;6.434;2024-03-22T07:47:09;3.70;;;3.10;;
16900;SDS011;8567;52.540;6.434;2024-03-22T07:49:37;3.65;;;3.35;;
16900;SDS011;8567;52.540;6.434;2024-03-22T07:52:03;3.70;;;3.40;;
16900;SDS011;8567;52.540;6.434;2024-03-22T07:54:30;3.40;;;3.13;;
16900;SDS011;8567;52.540;6.434;2024-03-22T07:56:56;5.32;;;3.40;;
16900;SDS011;8567;52.540;6.434;2024-03-22T07:59:23;3.40;;;2.92;;
16900;SDS011;8567;52.540;6.434;2024-03-22T08:01:50;3.22;;;2.70;;
16900;SDS011;8567;52.540;6.434;2024-03-22T08:04:17;2.92;;;2.72;;
16900;SDS011;8567;52.540;6.434;2024-03-22T08:06:44;3.50;;;3.17;;
16900;SDS011;8567;52.540;6.434;2024-03-22T08:09:11;3.03;;;2.75;;
16900;SDS011;8567;52.540;6.434;2024-03-22T08:11:37;2.88;;;2.67;;
16900;SDS011;8567;52.540;6.434;2024-03-22T08:14:05;2.97;;;2.70;;
16900;SDS011;8567;52.540;6.434;2024-03-22T08:16:30;2.53;;;2.33;;
16900;SDS011;8567;52.540;6.434;2024-03-22T08:18:57;3.05;;;2.85;;
16900;SDS011;8567;52.540;6.434;2024-03-22T08:21:23;2.70;;;2.50;;
16900;SDS011;8567;52.540;6.434;2024-03-22T08:23:52;2.80;;;2.55;;
16900;SDS011;8567;52.540;6.434;2024-03-22T08:26:18;2.72;;;2.53;;
16900;SDS011;8567;52.540;6.434;2024-03-22T08:28:45;3.28;;;2.72;;
16900;SDS011;8567;52.540;6.434;2024-03-22T08:31:12;2.90;;;2.60;;
16900;SDS011;8567;52.540;6.434;2024-03-22T08:33:39;2.30;;;2.10;;
16900;SDS011;8567;52.540;6.434;2024-03-22T08:36:05;3.50;;;2.60;;
16900;SDS011;8567;52.540;6.434;2024-03-22T08:38:32;2.88;;;2.60;;
16900;SDS011;8567;52.540;6.434;2024-03-22T08:41:00;3.72;;;2.40;;
16900;SDS011;8567;52.540;6.434;2024-03-22T08:43:26;2.38;;;2.20;;
16900;SDS011;8567;52.540;6.434;2024-03-22T08:45:54;2.42;;;2.33;;
16900;SDS011;8567;52.540;6.434;2024-03-22T08:48:21;2.80;;;2.50;;
16900;SDS011;8567;52.540;6.434;2024-03-22T08:50:47;2.25;;;2.15;;
16900;SDS011;8567;52.540;6.434;2024-03-22T08:53:13;2.58;;;2.38;;
16900;SDS011;8567;52.540;6.434;2024-03-22T08:55:44;2.28;;;2.17;;
16900;SDS011;8567;52.540;6.434;2024-03-22T08:58:14;2.95;;;2.50;;
16900;SDS011;8567;52.540;6.434;2024-03-22T09:00:40;2.50;;;2.30;;
16900;SDS011;8567;52.540;6.434;2024-03-22T09:03:07;2.40;;;2.30;;
16900;SDS011;8567;52.540;6.434;2024-03-22T09:05:33;3.00;;;1.90;;
16900;SDS011;8567;52.540;6.434;2024-03-22T09:08:00;2.50;;;2.30;;
16900;SDS011;8567;52.540;6.434;2024-03-22T09:10:28;2.20;;;2.10;;
16900;SDS011;8567;52.540;6.434;2024-03-22T09:12:55;2.60;;;2.22;;
16900;SDS011;8567;52.540;6.434;2024-03-22T09:15:22;2.00;;;1.90;;
16900;SDS011;8567;52.540;6.434;2024-03-22T09:17:51;2.10;;;2.00;;
16900;SDS011;8567;52.540;6.434;2024-03-22T09:20:17;2.42;;;2.25;;
16900;SDS011;8567;52.540;6.434;2024-03-22T09:22:44;2.42;;;2.10;;
16900;SDS011;8567;52.540;6.434;2024-03-22T09:25:09;2.38;;;2.17;;
16900;SDS011;8567;52.540;6.434;2024-03-22T09:27:36;2.00;;;1.90;;
16900;SDS011;8567;52.540;6.434;2024-03-22T09:30:02;2.03;;;1.92;;
16900;SDS011;8567;52.540;6.434;2024-03-22T09:32:31;2.08;;;1.98;;
16900;SDS011;8567;52.540;6.434;2024-03-22T09:34:57;2.10;;;2.00;;
16900;SDS011;8567;52.540;6.434;2024-03-22T09:37:24;2.28;;;2.10;;
16900;SDS011;8567;52.540;6.434;2024-03-22T09:39:49;2.08;;;1.98;;
16900;SDS011;8567;52.540;6.434;2024-03-22T09:42:16;2.08;;;1.98;;
16900;SDS011;8567;52.540;6.434;2024-03-22T09:44:43;2.08;;;1.98;;
16900;SDS011;8567;52.540;6.434;2024-03-22T09:47:15;2.08;;;1.98;;
16900;SDS011;8567;52.540;6.434;2024-03-22T09:49:43;1.83;;;1.73;;
16900;SDS011;8567;52.540;6.434;2024-03-22T09:52:11;2.22;;;2.13;;
16900;SDS011;8567;52.540;6.434;2024-03-22T09:54:38;1.92;;;1.83;;
16900;SDS011;8567;52.540;6.434;2024-03-22T09:57:08;2.22;;;2.03;;
16900;SDS011;8567;52.540;6.434;2024-03-22T09:59:37;2.28;;;2.08;;
16900;SDS011;8567;52.540;6.434;2024-03-22T10:02:05;2.10;;;2.00;;
16900;SDS011;8567;52.540;6.434;2024-03-22T10:04:33;2.03;;;1.92;;
16900;SDS011;8567;52.540;6.434;2024-03-22T10:07:02;1.80;;;1.70;;
16900;SDS011;8567;52.540;6.434;2024-03-22T10:09:29;2.00;;;1.90;;
16900;SDS011;8567;52.540;6.434;2024-03-22T10:11:56;2.00;;;1.83;;
16900;SDS011;8567;52.540;6.434;2024-03-22T10:14:22;2.10;;;2.00;;
16900;SDS011;8567;52.540;6.434;2024-03-22T10:16:50;2.10;;;2.00;;
16900;SDS011;8567;52.540;6.434;2024-03-22T10:19:18;2.00;;;1.90;;
16900;SDS011;8567;52.540;6.434;2024-03-22T10:21:45;2.40;;;2.20;;
16900;SDS011;8567;52.540;6.434;2024-03-22T10:24:13;2.03;;;1.92;;
16900;SDS011;8567;52.540;6.434;2024-03-22T10:26:40;1.90;;;1.80;;
16900;SDS011;8567;52.540;6.434;2024-03-22T10:29:06;2.08;;;1.98;;
16900;SDS011;8567;52.540;6.434;2024-03-22T10:31:34;2.03;;;1.92;;
16900;SDS011;8567;52.540;6.434;2024-03-22T10:34:01;1.90;;;1.80;;
16900;SDS011;8567;52.540;6.434;2024-03-22T10:36:30;1.80;;;1.70;;
16900;SDS011;8567;52.540;6.434;2024-03-22T10:38:58;2.00;;;1.90;;
16900;SDS011;8567;52.540;6.434;2024-03-22T10:41:28;1.90;;;1.80;;
16900;SDS011;8567;52.540;6.434;2024-03-22T10:43:53;1.70;;;1.60;;
16900;SDS011;8567;52.540;6.434;2024-03-22T10:46:21;2.10;;;2.00;;
16900;SDS011;8567;52.540;6.434;2024-03-22T10:48:52;1.90;;;1.80;;
16900;SDS011;8567;52.540;6.434;2024-03-22T10:51:19;1.90;;;1.80;;
16900;SDS011;8567;52.540;6.434;2024-03-22T10:53:47;1.90;;;1.80;;
16900;SDS011;8567;52.540;6.434;2024-03-22T10:56:14;1.88;;;1.77;;
16900;SDS011;8567;52.540;6.434;2024-03-22T10:58:44;2.05;;;1.95;;
16900;SDS011;8567;52.540;6.434;2024-03-22T11:01:21;1.83;;;1.73;;
16900;SDS011;8567;52.540;6.434;2024-03-22T11:03:48;1.88;;;1.77;;
16900;SDS011;8567;52.540;6.434;2024-03-22T11:06:17;1.70;;;1.60;;
16900;SDS011;8567;52.540;6.434;2024-03-22T11:08:44;1.90;;;1.80;;
16900;SDS011;8567;52.540;6.434;2024-03-22T11:11:15;1.90;;;1.80;;
16900;SDS011;8567;52.540;6.434;2024-03-22T11:13:46;2.00;;;1.90;;
16900;SDS011;8567;52.540;6.434;2024-03-22T11:16:12;1.70;;;1.60;;
16900;SDS011;8567;52.540;6.434;2024-03-22T11:18:40;1.90;;;1.80;;
16900;SDS011;8567;52.540;6.434;2024-03-22T11:21:06;1.40;;;1.40;;
16900;SDS011;8567;52.540;6.434;2024-03-22T11:23:34;2.00;;;1.90;;
16900;SDS011;8567;52.540;6.434;2024-03-22T11:26:01;1.90;;;1.80;;
16900;SDS011;8567;52.540;6.434;2024-03-22T11:28:29;1.90;;;1.80;;
16900;SDS011;8567;52.540;6.434;2024-03-22T11:30:56;1.90;;;1.80;;
16900;SDS011;8567;52.540;6.434;2024-03-22T11:33:23;2.00;;;1.90;;
16900;SDS011;8567;52.540;6.434;2024-03-22T11:35:49;1.70;;;1.60;;
16900;SDS011;8567;52.540;6.434;2024-03-22T11:38:16;1.70;;;1.60;;
16900;SDS011;8567;52.540;6.434;2024-03-22T11:40:42;1.73;;;1.63;;
16900;SDS011;8567;52.540;6.434;2024-03-22T11:43:09;1.70;;;1.60;;
16900;SDS011;8567;52.540;6.434;2024-03-22T11:45:36;1.60;;;1.50;;
16900;SDS011;8567;52.540;6.434;2024-03-22T11:48:05;1.83;;;1.73;;
16900;SDS011;8567;52.540;6.434;2024-03-22T11:50:32;1.70;;;1.60;;
16900;SDS011;8567;52.540;6.434;2024-03-22T11:52:59;1.75;;;1.65;;
16900;SDS011;8567;52.540;6.434;2024-03-22T11:55:26;1.80;;;1.70;;
16900;SDS011;8567;52.540;6.434;2024-03-22T11:57:53;1.73;;;1.63;;
16900;SDS011;8567;52.540;6.434;2024-03-22T12:00:22;1.83;;;1.73;;
16900;SDS011;8567;52.540;6.434;2024-03-22T12:02:50;1.70;;;1.60;;
16900;SDS011;8567;52.540;6.434;2024-03-22T12:05:18;1.65;;;1.55;;
16900;SDS011;8567;52.540;6.434;2024-03-22T12:07:46;1.80;;;1.60;;
16900;SDS011;8567;52.540;6.434;2024-03-22T12:10:12;1.73;;;1.63;;
16900;SDS011;8567;52.540;6.434;2024-03-22T12:12:39;1.80;;;1.70;;
16900;SDS011;8567;52.540;6.434;2024-03-22T12:15:05;1.70;;;1.60;;
16900;SDS011;8567;52.540;6.434;2024-03-22T12:17:32;1.90;;;1.80;;
16900;SDS011;8567;52.540;6.434;2024-03-22T12:20:01;1.90;;;1.80;;
16900;SDS011;8567;52.540;6.434;2024-03-22T12:22:30;1.80;;;1.70;;
16900;SDS011;8567;52.540;6.434;2024-03-22T12:24:56;1.73;;;1.63;;
16900;SDS011;8567;52.540;6.434;2024-03-22T12:27:24;1.77;;;1.67;;
16900;SDS011;8567;52.540;6.434;2024-03-22T12:29:50;1.60;;;1.60;;
16900;SDS011;8567;52.540;6.434;2024-03-22T12:32:17;1.90;;;1.80;;
16900;SDS011;8567;52.540;6.434;2024-03-22T12:34:43;1.65;;;1.55;;
16900;SDS011;8567;52.540;6.434;2024-03-22T12:37:09;1.80;;;1.70;;
16900;SDS011;8567;52.540;6.434;2024-03-22T12:39:37;1.60;;;1.55;;
16900;SDS011;8567;52.540;6.434;2024-03-22T12:42:03;1.70;;;1.60;;
16900;SDS011;8567;52.540;6.434;2024-03-22T12:44:31;1.70;;;1.60;;
16900;SDS011;8567;52.540;6.434;2024-03-22T12:46:57;1.58;;;1.58;;
16900;SDS011;8567;52.540;6.434;2024-03-22T12:49:24;1.80;;;1.70;;
16900;SDS011;8567;52.540;6.434;2024-03-22T12:51:50;1.52;;;1.52;;
16900;SDS011;8567;52.540;6.434;2024-03-22T12:54:17;1.55;;;1.55;;
16900;SDS011;8567;52.540;6.434;2024-03-22T12:56:46;1.50;;;1.50;;
16900;SDS011;8567;52.540;6.434;2024-03-22T12:59:13;1.70;;;1.60;;
16900;SDS011;8567;52.540;6.434;2024-03-22T13:01:40;1.50;;;1.50;;
16900;SDS011;8567;52.540;6.434;2024-03-22T13:04:06;1.80;;;1.70;;
16900;SDS011;8567;52.540;6.434;2024-03-22T13:06:32;1.90;;;1.80;;
16900;SDS011;8567;52.540;6.434;2024-03-22T13:08:59;1.67;;;1.58;;
16900;SDS011;8567;52.540;6.434;2024-03-22T13:11:26;1.70;;;1.60;;
16900;SDS011;8567;52.540;6.434;2024-03-22T13:13:54;1.65;;;1.55;;
16900;SDS011;8567;52.540;6.434;2024-03-22T13:16:20;1.50;;;1.50;;
16900;SDS011;8567;52.540;6.434;2024-03-22T13:18:48;1.70;;;1.60;;
16900;SDS011;8567;52.540;6.434;2024-03-22T13:21:15;1.88;;;1.77;;
16900;SDS011;8567;52.540;6.434;2024-03-22T13:23:40;1.52;;;1.52;;
16900;SDS011;8567;52.540;6.434;2024-03-22T13:26:07;1.70;;;1.60;;
16900;SDS011;8567;52.540;6.434;2024-03-22T13:28:33;1.52;;;1.52;;
16900;SDS011;8567;52.540;6.434;2024-03-22T13:31:02;1.55;;;1.50;;
16900;SDS011;8567;52.540;6.434;2024-03-22T13:33:31;1.65;;;1.58;;
16900;SDS011;8567;52.540;6.434;2024-03-22T13:35:58;1.65;;;1.55;;
16900;SDS011;8567;52.540;6.434;2024-03-22T13:38:23;1.35;;;1.35;;
16900;SDS011;8567;52.540;6.434;2024-03-22T13:40:54;1.42;;;1.42;;
16900;SDS011;8567;52.540;6.434;2024-03-22T13:43:20;1.67;;;1.67;;
16900;SDS011;8567;52.540;6.434;2024-03-22T13:45:48;1.75;;;1.70;;
16900;SDS011;8567;52.540;6.434;2024-03-22T13:48:20;1.58;;;1.48;;
16900;SDS011;8567;52.540;6.434;2024-03-22T13:50:49;1.50;;;1.42;;
16900;SDS011;8567;52.540;6.434;2024-03-22T13:53:16;1.55;;;1.55;;
16900;SDS011;8567;52.540;6.434;2024-03-22T13:55:44;1.50;;;1.50;;
16900;SDS011;8567;52.540;6.434;2024-03-22T13:58:11;1.70;;;1.60;;
16900;SDS011;8567;52.540;6.434;2024-03-22T14:00:38;1.70;;;1.60;;
16900;SDS011;8567;52.540;6.434;2024-03-22T14:03:05;1.52;;;1.50;;
16900;SDS011;8567;52.540;6.434;2024-03-22T14:05:33;1.55;;;1.48;;
16900;SDS011;8567;52.540;6.434;2024-03-22T14:07:59;1.40;;;1.40;;
16900;SDS011;8567;52.540;6.434;2024-03-22T14:10:26;1.60;;;1.50;;
16900;SDS011;8567;52.540;6.434;2024-03-22T14:12:53;1.60;;;1.50;;
16900;SDS011;8567;52.540;6.434;2024-03-22T14:15:20;1.55;;;1.55;;
16900;SDS011;8567;52.540;6.434;2024-03-22T14:17:45;1.40;;;1.40;;
16900;SDS011;8567;52.540;6.434;2024-03-22T14:20:13;1.65;;;1.55;;
16900;SDS011;8567;52.540;6.434;2024-03-22T14:22:40;1.60;;;1.50;;
16900;SDS011;8567;52.540;6.434;2024-03-22T14:25:07;1.63;;;1.58;;
16900;SDS011;8567;52.540;6.434;2024-03-22T14:27:33;1.70;;;1.60;;
16900;SDS011;8567;52.540;6.434;2024-03-22T14:30:01;1.60;;;1.50;;
16900;SDS011;8567;52.540;6.434;2024-03-22T14:32:30;1.50;;;1.50;;
16900;SDS011;8567;52.540;6.434;2024-03-22T14:34:57;1.55;;;1.48;;
16900;SDS011;8567;52.540;6.434;2024-03-22T14:37:23;1.80;;;1.70;;
16900;SDS011;8567;52.540;6.434;2024-03-22T14:39:51;1.77;;;1.67;;
16900;SDS011;8567;52.540;6.434;2024-03-22T14:42:17;1.60;;;1.50;;
16900;SDS011;8567;52.540;6.434;2024-03-22T14:44:44;1.80;;;1.70;;
16900;SDS011;8567;52.540;6.434;2024-03-22T14:47:10;1.58;;;1.50;;
16900;SDS011;8567;52.540;6.434;2024-03-22T14:49:37;1.70;;;1.60;;
16900;SDS011;8567;52.540;6.434;2024-03-22T14:52:05;1.67;;;1.58;;
16900;SDS011;8567;52.540;6.434;2024-03-22T14:54:32;1.67;;;1.58;;
16900;SDS011;8567;52.540;6.434;2024-03-22T14:56:59;1.70;;;1.60;;
16900;SDS011;8567;52.540;6.434;2024-03-22T14:59:27;1.63;;;1.52;;